Time;durP1;ratioP1;P1;durP2;ratioP2;P2;SDS_P1;SDS_P2;PMS_P1;PMS_P2;Temp;Humidity;BMP_temperature;BMP_pressure;BME280_temperature;BME280_humidity;BME280_pressure;Samples;Min_cycle;Max_cycle;Signal;HPM_P1;HPM_P2
2021/09/11 00:00:17;;;;;;;8.02;3.95;;;;;;;;;;4932813;29;20389;-79
2021/09/11 00:02:47;;;;;;;10.07;4.15;;;;;;;;;;4956361;28;20027;-79
2021/09/11 00:05:14;;;;;;;10.05;4.25;;;;;;;;;;4959583;28;20035;-74
2021/09/11 00:07:40;;;;;;;8.43;3.92;;;;;;;;;;4955934;28;20050;-67
2021/09/11 00:10:07;;;;;;;10.68;4.07;;;;;;;;;;4956294;29;20095;-77
2021/09/11 00:12:35;;;;;;;12.00;4.07;;;;;;;;;;4956236;29;20027;-78
2021/09/11 00:15:01;;;;;;;6.80;4.13;;;;;;;;;;4965536;29;20035;-72
2021/09/11 00:17:28;;;;;;;9.50;3.95;;;;;;;;;;4945850;28;20481;-69
2021/09/11 00:19:54;;;;;;;7.70;3.83;;;;;;;;;;4956074;29;20071;-78
2021/09/11 00:22:20;;;;;;;15.68;3.88;;;;;;;;;;4956119;29;20071;-76
2021/09/11 00:24:46;;;;;;;22.45;4.93;;;;;;;;;;4962855;28;20026;-71
2021/09/11 00:27:12;;;;;;;10.90;3.85;;;;;;;;;;4963629;28;20043;-65
2021/09/11 00:29:38;;;;;;;9.50;4.20;;;;;;;;;;4956223;29;20026;-73
2021/09/11 00:32:11;;;;;;;8.15;4.07;;;;;;;;;;4954323;28;20051;-76
2021/09/11 00:34:38;;;;;;;6.18;4.03;;;;;;;;;;4955019;28;20050;-78
2021/09/11 00:37:04;;;;;;;8.68;4.13;;;;;;;;;;4955733;29;20033;-68
2021/09/11 00:39:30;;;;;;;13.18;4.38;;;;;;;;;;4956072;29;20023;-74
2021/09/11 00:41:56;;;;;;;13.57;4.47;;;;;;;;;;4955127;28;20545;-67
2021/09/11 00:44:25;;;;;;;11.25;4.38;;;;;;;;;;4957361;29;20026;-74
2021/09/11 00:46:51;;;;;;;13.55;4.43;;;;;;;;;;4938690;29;20027;-73
2021/09/11 00:49:18;;;;;;;11.93;4.07;;;;;;;;;;4956053;29;20370;-76
2021/09/11 00:51:45;;;;;;;13.15;4.43;;;;;;;;;;4955764;29;20473;-77
2021/09/11 00:54:11;;;;;;;8.98;4.25;;;;;;;;;;4955705;29;20034;-64
2021/09/11 00:56:37;;;;;;;12.88;4.32;;;;;;;;;;4955552;29;20114;-78
2021/09/11 00:59:03;;;;;;;9.90;4.15;;;;;;;;;;4956211;29;20075;-76
2021/09/11 01:01:30;;;;;;;10.73;4.70;;;;;;;;;;4955748;28;20035;-72
2021/09/11 01:03:56;;;;;;;14.13;3.90;;;;;;;;;;4954995;29;20110;-76
2021/09/11 01:06:26;;;;;;;14.43;5.05;;;;;;;;;;4960851;28;20019;-78
2021/09/11 01:08:54;;;;;;;12.25;4.40;;;;;;;;;;4956868;28;20389;-76
2021/09/11 01:11:20;;;;;;;9.25;4.00;;;;;;;;;;4937995;29;20468;-65
2021/09/11 01:13:46;;;;;;;20.50;5.07;;;;;;;;;;4955485;29;20082;-78
2021/09/11 01:16:12;;;;;;;28.67;5.05;;;;;;;;;;4954796;29;20119;-65
2021/09/11 01:18:38;;;;;;;24.02;4.97;;;;;;;;;;4961328;28;20038;-74
2021/09/11 01:21:04;;;;;;;21.42;5.57;;;;;;;;;;4957019;28;20038;-75
2021/09/11 01:23:33;;;;;;;12.65;4.63;;;;;;;;;;4955333;29;20083;-65
2021/09/11 01:26:00;;;;;;;7.68;3.92;;;;;;;;;;4939265;29;20038;-76
2021/09/11 01:28:29;;;;;;;10.70;4.30;;;;;;;;;;4954968;29;20035;-78
2021/09/11 01:30:55;;;;;;;13.15;4.53;;;;;;;;;;4954141;29;20035;-76
2021/09/11 01:33:27;;;;;;;10.50;4.38;;;;;;;;;;4963520;28;20047;-75
2021/09/11 01:35:54;;;;;;;9.27;4.28;;;;;;;;;;4955042;29;20367;-76
2021/09/11 01:38:20;;;;;;;9.05;4.35;;;;;;;;;;4954623;29;20027;-70
2021/09/11 01:40:46;;;;;;;11.20;4.80;;;;;;;;;;4955279;29;20087;-69
2021/09/11 01:43:12;;;;;;;8.32;4.10;;;;;;;;;;4954385;29;20120;-72
2021/09/11 01:45:39;;;;;;;8.73;4.38;;;;;;;;;;4954711;29;20058;-75
2021/09/11 01:48:05;;;;;;;8.73;4.78;;;;;;;;;;4954021;29;20027;-71
2021/09/11 01:50:31;;;;;;;10.70;4.43;;;;;;;;;;4954952;29;20058;-71
2021/09/11 01:52:57;;;;;;;9.25;4.30;;;;;;;;;;4954193;29;20031;-75
2021/09/11 01:55:23;;;;;;;9.02;4.45;;;;;;;;;;4954258;28;20042;-75
2021/09/11 01:57:49;;;;;;;13.88;4.65;;;;;;;;;;4954227;29;20393;-72
2021/09/11 02:00:19;;;;;;;10.32;4.78;;;;;;;;;;4954670;29;20086;-76
2021/09/11 02:02:45;;;;;;;11.88;4.30;;;;;;;;;;4936898;29;20126;-69
2021/09/11 02:05:13;;;;;;;8.85;4.35;;;;;;;;;;4953987;29;20035;-72
2021/09/11 02:07:39;;;;;;;11.90;4.78;;;;;;;;;;4954217;28;20024;-73
2021/09/11 02:10:06;;;;;;;10.00;4.68;;;;;;;;;;4953505;29;20042;-76
2021/09/11 02:12:32;;;;;;;7.28;4.30;;;;;;;;;;4953341;29;20035;-68
2021/09/11 02:14:58;;;;;;;10.88;4.82;;;;;;;;;;4954144;29;20094;-79
2021/09/11 02:17:24;;;;;;;9.45;4.68;;;;;;;;;;4953895;29;20047;-76
2021/09/11 02:19:51;;;;;;;10.77;4.80;;;;;;;;;;4953782;29;20027;-65
2021/09/11 02:22:17;;;;;;;8.93;4.78;;;;;;;;;;4954016;29;20038;-78
2021/09/11 02:24:43;;;;;;;8.20;4.07;;;;;;;;;;4953813;28;20023;-76
2021/09/11 02:27:09;;;;;;;10.02;4.50;;;;;;;;;;4936224;29;20039;-78
2021/09/11 02:29:35;;;;;;;8.50;4.85;;;;;;;;;;4954186;29;20023;-78
2021/09/11 02:32:04;;;;;;;8.90;4.63;;;;;;;;;;4953988;29;20528;-68
2021/09/11 02:34:30;;;;;;;8.38;4.13;;;;;;;;;;4954289;29;20023;-75
2021/09/11 02:36:56;;;;;;;9.52;4.28;;;;;;;;;;4953697;29;20039;-76
2021/09/11 02:39:22;;;;;;;8.90;4.20;;;;;;;;;;4953987;29;20099;-67
2021/09/11 02:41:49;;;;;;;7.72;4.10;;;;;;;;;;4955479;28;20397;-79
2021/09/11 02:44:15;;;;;;;8.50;4.35;;;;;;;;;;4939061;29;20392;-75
2021/09/11 02:46:41;;;;;;;11.43;4.78;;;;;;;;;;4953674;28;20027;-69
2021/09/11 02:49:07;;;;;;;9.82;4.72;;;;;;;;;;4953778;29;20031;-65
2021/09/11 02:51:33;;;;;;;8.02;4.40;;;;;;;;;;4953739;29;20496;-74
2021/09/11 02:54:00;;;;;;;8.15;4.35;;;;;;;;;;4953471;29;20031;-68
2021/09/11 02:56:26;;;;;;;8.15;4.60;;;;;;;;;;4956666;28;20481;-66
2021/09/11 02:58:52;;;;;;;10.27;4.65;;;;;;;;;;4936831;29;20394;-77
2021/09/11 03:01:18;;;;;;;9.52;4.50;;;;;;;;;;4955944;28;20035;-67
2021/09/11 03:03:45;;;;;;;7.75;4.88;;;;;;;;;;4953214;29;20023;-75
2021/09/11 03:06:11;;;;;;;10.20;4.60;;;;;;;;;;4956231;28;20049;-68
2021/09/11 03:08:37;;;;;;;8.65;4.97;;;;;;;;;;4955872;29;20023;-78
2021/09/11 03:11:03;;;;;;;9.25;4.30;;;;;;;;;;4959215;28;20077;-65
2021/09/11 03:13:29;;;;;;;7.45;4.40;;;;;;;;;;4956977;29;20110;-74
2021/09/11 03:15:57;;;;;;;9.40;4.30;;;;;;;;;;4959766;29;20473;-74
2021/09/11 03:18:24;;;;;;;10.48;4.50;;;;;;;;;;4940465;29;20039;-75
2021/09/11 03:20:51;;;;;;;10.43;4.82;;;;;;;;;;4957430;29;20425;-64
2021/09/11 03:23:17;;;;;;;9.60;4.20;;;;;;;;;;4956934;29;20035;-76
2021/09/11 03:25:43;;;;;;;9.38;4.55;;;;;;;;;;4957399;29;20118;-76
2021/09/11 03:28:10;;;;;;;10.27;4.88;;;;;;;;;;4957008;29;20027;-66
2021/09/11 03:30:36;;;;;;;11.10;5.47;;;;;;;;;;4957298;29;20023;-79
2021/09/11 03:33:02;;;;;;;11.27;5.07;;;;;;;;;;4959749;28;20039;-66
2021/09/11 03:35:28;;;;;;;8.48;5.07;;;;;;;;;;4957244;29;20106;-79
2021/09/11 03:37:55;;;;;;;13.52;5.35;;;;;;;;;;4958116;28;20031;-64
2021/09/11 03:40:21;;;;;;;7.25;4.55;;;;;;;;;;4957120;29;20481;-78
2021/09/11 03:42:47;;;;;;;12.40;4.65;;;;;;;;;;4956903;29;20400;-67
2021/09/11 03:45:13;;;;;;;11.55;4.68;;;;;;;;;;4956986;29;20035;-77
2021/09/11 03:47:39;;;;;;;11.93;5.40;;;;;;;;;;4957042;29;20106;-73
2021/09/11 03:50:06;;;;;;;14.35;5.32;;;;;;;;;;4956839;29;20047;-75
2021/09/11 03:52:32;;;;;;;7.57;4.53;;;;;;;;;;4956576;29;20038;-66
2021/09/11 03:54:59;;;;;;;10.75;5.05;;;;;;;;;;4956493;29;20059;-69
2021/09/11 03:57:26;;;;;;;9.13;5.18;;;;;;;;;;4956033;29;20058;-72
2021/09/11 03:59:52;;;;;;;11.52;4.72;;;;;;;;;;4956711;29;20115;-66
2021/09/11 04:02:18;;;;;;;9.50;4.80;;;;;;;;;;4958279;28;20057;-81
2021/09/11 04:04:45;;;;;;;9.32;4.45;;;;;;;;;;4956359;29;20496;-75
2021/09/11 04:07:11;;;;;;;10.98;4.82;;;;;;;;;;4956586;29;20442;-68
2021/09/11 04:09:37;;;;;;;8.18;4.68;;;;;;;;;;4956875;29;20027;-76
2021/09/11 04:12:05;;;;;;;7.50;4.60;;;;;;;;;;4956405;29;20144;-71
2021/09/11 04:14:31;;;;;;;12.30;4.80;;;;;;;;;;4956331;29;20161;-76
2021/09/11 04:16:58;;;;;;;11.05;5.10;;;;;;;;;;4957876;28;20054;-79
2021/09/11 04:19:24;;;;;;;19.60;4.78;;;;;;;;;;4940357;29;20031;-70
2021/09/11 04:21:50;;;;;;;8.18;4.40;;;;;;;;;;4957403;29;20023;-69
2021/09/11 04:24:16;;;;;;;10.57;5.20;;;;;;;;;;4955631;29;20031;-67
2021/09/11 04:26:42;;;;;;;12.50;5.05;;;;;;;;;;4956922;29;20043;-65
2021/09/11 04:29:08;;;;;;;12.88;5.30;;;;;;;;;;4955283;29;20027;-78
2021/09/11 04:31:34;;;;;;;11.65;4.85;;;;;;;;;;4953498;28;20034;-70
2021/09/11 04:34:00;;;;;;;8.70;4.47;;;;;;;;;;4958895;28;20043;-73
2021/09/11 04:36:26;;;;;;;11.68;5.05;;;;;;;;;;4955958;29;20030;-74
2021/09/11 04:38:52;;;;;;;12.00;4.90;;;;;;;;;;4956355;29;20031;-75
2021/09/11 04:41:19;;;;;;;11.35;4.90;;;;;;;;;;4956055;28;20381;-76
2021/09/11 04:43:45;;;;;;;12.60;5.00;;;;;;;;;;4954523;29;20484;-76
2021/09/11 04:46:11;;;;;;;31.25;5.93;;;;;;;;;;4955623;29;20066;-76
2021/09/11 04:48:37;;;;;;;12.07;4.90;;;;;;;;;;4962280;28;20027;-73
2021/09/11 04:51:03;;;;;;;11.07;5.38;;;;;;;;;;4951177;29;20050;-69
2021/09/11 04:53:31;;;;;;;13.23;5.65;;;;;;;;;;4960734;29;20079;-75
2021/09/11 04:55:57;;;;;;;12.48;4.82;;;;;;;;;;4955212;29;20035;-72
2021/09/11 04:58:23;;;;;;;16.48;4.88;;;;;;;;;;4955352;28;20396;-66
2021/09/11 05:00:49;;;;;;;10.27;5.07;;;;;;;;;;4956175;29;20465;-69
2021/09/11 05:03:15;;;;;;;12.32;5.30;;;;;;;;;;4965741;28;20039;-73
2021/09/11 05:05:41;;;;;;;13.57;5.00;;;;;;;;;;4958621;28;20038;-71
2021/09/11 05:08:07;;;;;;;10.73;4.93;;;;;;;;;;4948643;29;20034;-75
2021/09/11 05:10:33;;;;;;;14.25;5.03;;;;;;;;;;4955410;29;20050;-73
2021/09/11 05:13:00;;;;;;;11.60;4.85;;;;;;;;;;4936673;29;20110;-65
2021/09/11 05:15:26;;;;;;;9.25;4.32;;;;;;;;;;4955502;29;20023;-67
2021/09/11 05:17:54;;;;;;;10.63;5.20;;;;;;;;;;4961126;28;20043;-76
2021/09/11 05:20:23;;;;;;;15.55;5.35;;;;;;;;;;4963754;28;20038;-67
2021/09/11 05:22:51;;;;;;;9.93;5.20;;;;;;;;;;4948483;28;20050;-80
2021/09/11 05:25:18;;;;;;;18.50;5.93;;;;;;;;;;4956205;29;20039;-73
2021/09/11 05:27:45;;;;;;;11.07;5.22;;;;;;;;;;4956682;29;20031;-66
2021/09/11 05:30:12;;;;;;;15.85;5.00;;;;;;;;;;4953914;28;20110;-73
2021/09/11 05:32:38;;;;;;;14.85;5.28;;;;;;;;;;4953857;29;20492;-78
2021/09/11 05:35:04;;;;;;;10.88;5.82;;;;;;;;;;4953201;29;20489;-79
2021/09/11 05:37:30;;;;;;;15.60;5.50;;;;;;;;;;4954244;29;20050;-65
2021/09/11 05:39:56;;;;;;;16.38;5.72;;;;;;;;;;4951078;29;20389;-69
2021/09/11 05:42:22;;;;;;;15.10;5.78;;;;;;;;;;4954193;29;20085;-76
2021/09/11 05:44:51;;;;;;;14.15;4.97;;;;;;;;;;4954240;29;20390;-69
2021/09/11 05:47:34;;;;;;;12.50;4.95;;;;;;;;;;4951332;29;20094;-74
2021/09/11 05:50:01;;;;;;;11.98;4.45;;;;;;;;;;4954458;28;20076;-85
2021/09/11 05:52:27;;;;;;;9.35;4.85;;;;;;;;;;4954273;29;20572;-76
2021/09/11 05:54:53;;;;;;;11.18;4.85;;;;;;;;;;4954584;28;20039;-86
2021/09/11 05:57:19;;;;;;;7.22;4.18;;;;;;;;;;4953966;29;20055;-82
2021/09/11 05:59:56;;;;;;;10.70;4.82;;;;;;;;;;5065138;28;20466;-72
2021/09/11 06:02:22;;;;;;;14.35;5.45;;;;;;;;;;5055554;28;20096;-69
2021/09/11 06:04:51;;;;;;;11.60;4.93;;;;;;;;;;5069095;28;20025;-75
2021/09/11 06:07:17;;;;;;;13.80;4.85;;;;;;;;;;5056543;28;20032;-70
2021/09/11 06:09:43;;;;;;;12.80;5.68;;;;;;;;;;5055561;28;20091;-72
2021/09/11 06:12:11;;;;;;;12.32;6.03;;;;;;;;;;5061180;28;20021;-74
2021/09/11 06:14:38;;;;;;;15.48;6.20;;;;;;;;;;5042266;28;20025;-76
2021/09/11 06:17:05;;;;;;;17.63;6.63;;;;;;;;;;5056776;28;20087;-70
2021/09/11 06:19:31;;;;;;;11.93;6.13;;;;;;;;;;5067511;28;20036;-75
2021/09/11 06:21:57;;;;;;;10.93;6.45;;;;;;;;;;5046121;28;20061;-75
2021/09/11 06:24:23;;;;;;;11.15;6.30;;;;;;;;;;5049596;28;20033;-76
2021/09/11 06:26:49;;;;;;;13.02;6.15;;;;;;;;;;5068890;28;20099;-73
2021/09/11 06:29:15;;;;;;;13.05;6.65;;;;;;;;;;5066821;28;20044;-69
2021/09/11 06:31:41;;;;;;;15.57;7.00;;;;;;;;;;5050546;28;20028;-74
2021/09/11 06:34:07;;;;;;;14.45;6.50;;;;;;;;;;5052182;28;20542;-68
2021/09/11 06:36:35;;;;;;;15.43;6.38;;;;;;;;;;5067224;28;20021;-75
2021/09/11 06:39:01;;;;;;;12.05;6.10;;;;;;;;;;5068638;28;20050;-71
2021/09/11 06:41:30;;;;;;;16.65;6.70;;;;;;;;;;5065303;28;20068;-75
2021/09/11 06:43:56;;;;;;;17.27;5.70;;;;;;;;;;5048798;28;20917;-70
2021/09/11 06:46:22;;;;;;;11.35;6.00;;;;;;;;;;5052685;28;20087;-74
2021/09/11 06:48:48;;;;;;;11.48;6.00;;;;;;;;;;5056755;28;20354;-75
2021/09/11 06:51:14;;;;;;;15.07;5.60;;;;;;;;;;5068675;28;20028;-73
2021/09/11 06:53:40;;;;;;;15.50;6.75;;;;;;;;;;5062474;28;20032;-74
2021/09/11 06:56:06;;;;;;;12.77;6.10;;;;;;;;;;5053539;28;20104;-73
2021/09/11 06:58:32;;;;;;;13.88;6.18;;;;;;;;;;5065308;28;20053;-73
2021/09/11 07:00:59;;;;;;;13.52;5.72;;;;;;;;;;5068178;28;20127;-75
2021/09/11 07:03:25;;;;;;;18.02;6.63;;;;;;;;;;5053596;28;20463;-72
2021/09/11 07:05:51;;;;;;;20.65;7.05;;;;;;;;;;5060811;28;20032;-75
2021/09/11 07:08:17;;;;;;;15.25;6.93;;;;;;;;;;5052525;28;20059;-72
2021/09/11 07:10:44;;;;;;;15.15;7.45;;;;;;;;;;5052606;28;20048;-73
2021/09/11 07:13:10;;;;;;;13.15;6.53;;;;;;;;;;5034082;28;20101;-75
2021/09/11 07:15:36;;;;;;;34.00;7.10;;;;;;;;;;5048467;28;20025;-70
2021/09/11 07:18:02;;;;;;;20.92;6.85;;;;;;;;;;5048353;28;20032;-75
2021/09/11 07:20:30;;;;;;;14.57;6.30;;;;;;;;;;5054515;28;20082;-75
2021/09/11 07:22:56;;;;;;;19.30;6.57;;;;;;;;;;5040956;28;20162;-74
2021/09/11 07:25:22;;;;;;;15.25;6.68;;;;;;;;;;5053239;28;20162;-69
2021/09/11 07:27:48;;;;;;;15.95;6.65;;;;;;;;;;5054320;28;20044;-72
2021/09/11 07:30:14;;;;;;;12.23;6.65;;;;;;;;;;5054313;28;20114;-76
2021/09/11 07:32:40;;;;;;;12.32;6.05;;;;;;;;;;5044617;28;20602;-77
2021/09/11 07:35:06;;;;;;;18.08;6.75;;;;;;;;;;5039752;28;20490;-72
2021/09/11 07:37:32;;;;;;;19.45;7.22;;;;;;;;;;5051766;28;20107;-71
2021/09/11 07:39:59;;;;;;;23.77;7.88;;;;;;;;;;5043203;28;20025;-74
2021/09/11 07:42:27;;;;;;;17.58;7.15;;;;;;;;;;5052538;28;20013;-71
2021/09/11 07:44:53;;;;;;;15.27;6.82;;;;;;;;;;5039100;28;20025;-70
2021/09/11 07:47:19;;;;;;;18.33;6.32;;;;;;;;;;5044364;28;20561;-75
2021/09/11 07:49:46;;;;;;;15.70;6.68;;;;;;;;;;5049417;28;20368;-76
2021/09/11 07:52:12;;;;;;;14.38;5.70;;;;;;;;;;5049493;28;20034;-70
2021/09/11 07:54:38;;;;;;;14.95;6.00;;;;;;;;;;5033533;28;20030;-69
2021/09/11 07:57:04;;;;;;;14.57;6.15;;;;;;;;;;5040356;28;20070;-71
2021/09/11 07:59:30;;;;;;;14.52;6.28;;;;;;;;;;5053086;28;20506;-75
2021/09/11 08:01:58;;;;;;;12.43;6.60;;;;;;;;;;5050443;28;20458;-71
2021/09/11 08:04:24;;;;;;;15.63;6.80;;;;;;;;;;5032097;28;20517;-74
2021/09/11 08:06:50;;;;;;;22.13;7.30;;;;;;;;;;5038959;28;20054;-74
2021/09/11 08:09:16;;;;;;;19.55;7.38;;;;;;;;;;5039410;28;20021;-70
2021/09/11 08:11:42;;;;;;;17.48;7.25;;;;;;;;;;5053889;28;20033;-67
2021/09/11 08:14:11;;;;;;;18.33;7.70;;;;;;;;;;5034205;28;20077;-72
2021/09/11 08:16:37;;;;;;;16.00;6.95;;;;;;;;;;5035202;28;20025;-77
2021/09/11 08:19:03;;;;;;;16.58;6.93;;;;;;;;;;5037056;28;20512;-80
2021/09/11 08:21:29;;;;;;;21.15;7.47;;;;;;;;;;5046670;28;20029;-75
2021/09/11 08:23:55;;;;;;;24.60;6.93;;;;;;;;;;5034485;28;20026;-75
2021/09/11 08:26:26;;;;;;;21.08;6.88;;;;;;;;;;5034724;28;20043;-77
2021/09/11 08:28:52;;;;;;;14.02;6.22;;;;;;;;;;5051362;28;20095;-75
2021/09/11 08:31:20;;;;;;;18.55;6.47;;;;;;;;;;5032389;28;20869;-73
2021/09/11 08:33:46;;;;;;;15.35;6.05;;;;;;;;;;5031708;28;20029;-74
2021/09/11 08:36:12;;;;;;;16.55;6.10;;;;;;;;;;5039504;28;20026;-75
2021/09/11 08:38:38;;;;;;;16.73;5.97;;;;;;;;;;5037647;28;20624;-72
2021/09/11 08:44:26;;;;;;;17.63;5.97;;;;;;;;;;5042512;28;20067;-76
2021/09/11 08:46:53;;;;;;;14.63;5.32;;;;;;;;;;5035363;28;20082;-77
2021/09/11 08:49:19;;;;;;;19.05;6.07;;;;;;;;;;5038483;28;20041;-79
2021/09/11 08:51:46;;;;;;;19.60;6.13;;;;;;;;;;5032157;28;20033;-78
2021/09/11 08:54:18;;;;;;;13.05;5.50;;;;;;;;;;5028923;28;20107;-81
2021/09/11 08:56:45;;;;;;;27.02;6.95;;;;;;;;;;5029248;28;20498;-77
2021/09/11 08:59:12;;;;;;;16.58;5.65;;;;;;;;;;5032244;28;20454;-74
2021/09/11 09:01:38;;;;;;;15.73;5.75;;;;;;;;;;5032413;28;20033;-78
2021/09/11 09:04:05;;;;;;;11.93;5.30;;;;;;;;;;5029139;28;20111;-73
2021/09/11 09:06:32;;;;;;;19.42;6.20;;;;;;;;;;5031927;28;20025;-79
2021/09/11 09:09:07;;;;;;;19.42;5.35;;;;;;;;;;5028557;28;20063;-80
2021/09/11 09:11:34;;;;;;;15.27;5.22;;;;;;;;;;5026336;28;20104;-76
2021/09/11 09:14:00;;;;;;;20.35;5.65;;;;;;;;;;5032703;28;20037;-72
2021/09/11 09:16:31;;;;;;;22.90;5.65;;;;;;;;;;5036007;28;20364;-79
2021/09/11 09:18:58;;;;;;;15.80;5.85;;;;;;;;;;5033662;28;20041;-77
2021/09/11 09:21:28;;;;;;;17.20;5.68;;;;;;;;;;5035946;28;20033;-72
2021/09/11 09:24:06;;;;;;;16.02;5.65;;;;;;;;;;5031647;28;20071;-75
2021/09/11 09:26:48;;;;;;;13.38;5.20;;;;;;;;;;5031123;28;20028;-77
2021/09/11 09:29:16;;;;;;;10.35;5.20;;;;;;;;;;5026352;28;20483;-73
2021/09/11 09:31:42;;;;;;;13.60;5.78;;;;;;;;;;5031423;28;20041;-75
2021/09/11 09:34:09;;;;;;;13.50;5.68;;;;;;;;;;5030672;28;20083;-81
2021/09/11 09:36:38;;;;;;;12.63;5.70;;;;;;;;;;5033250;28;20089;-80
2021/09/11 09:39:06;;;;;;;12.15;5.28;;;;;;;;;;5031130;28;20368;-73
2021/09/11 09:41:44;;;;;;;13.23;5.00;;;;;;;;;;5032339;28;20033;-73
2021/09/11 09:44:11;;;;;;;15.15;5.20;;;;;;;;;;5025381;28;20029;-81
2021/09/11 09:46:39;;;;;;;12.50;4.93;;;;;;;;;;5030340;28;20022;-77
2021/09/11 09:49:06;;;;;;;17.63;5.00;;;;;;;;;;5032943;28;20483;-77
2021/09/11 09:51:33;;;;;;;14.18;5.28;;;;;;;;;;5025562;28;20114;-74
2021/09/11 09:54:00;;;;;;;14.27;4.70;;;;;;;;;;5028137;28;20394;-77
2021/09/11 09:56:29;;;;;;;9.15;5.18;;;;;;;;;;5028613;28;20502;-84
2021/09/11 09:58:55;;;;;;;12.98;5.00;;;;;;;;;;5024259;28;20057;-84
2021/09/11 10:01:25;;;;;;;13.30;4.85;;;;;;;;;;5030887;28;20112;-72
2021/09/11 10:03:51;;;;;;;14.05;5.28;;;;;;;;;;5031086;28;20383;-75
2021/09/11 10:06:28;;;;;;;12.70;4.50;;;;;;;;;;5031900;28;20025;-75
2021/09/11 10:09:00;;;;;;;17.10;4.80;;;;;;;;;;5030005;28;20053;-77
2021/09/11 10:11:35;;;;;;;13.63;4.53;;;;;;;;;;5031582;28;20107;-78
2021/09/11 10:14:03;;;;;;;10.27;4.70;;;;;;;;;;5024738;28;20134;-76
2021/09/11 10:16:34;;;;;;;10.07;4.78;;;;;;;;;;5043597;28;20119;-79
2021/09/11 10:19:20;;;;;;;11.57;4.03;;;;;;;;;;5022143;28;20034;-78
2021/09/11 10:21:47;;;;;;;7.55;4.57;;;;;;;;;;5020971;28;20038;-76
2021/09/11 10:24:17;;;;;;;10.35;4.20;;;;;;;;;;5027111;28;20024;-84
2021/09/11 10:26:46;;;;;;;9.13;4.47;;;;;;;;;;5030921;28;20363;-72
2021/09/11 10:29:37;;;;;;;11.05;3.97;;;;;;;;;;5035604;28;20037;-76
2021/09/11 10:32:24;;;;;;;12.55;4.25;;;;;;;;;;5033903;28;20387;-71
2021/09/11 10:34:51;;;;;;;14.43;4.40;;;;;;;;;;5049860;28;20029;-77
2021/09/11 10:37:30;;;;;;;22.15;4.75;;;;;;;;;;5030405;28;20053;-76
2021/09/11 10:40:14;;;;;;;9.02;3.95;;;;;;;;;;5042099;28;20478;-72
2021/09/11 10:43:01;;;;;;;19.33;4.22;;;;;;;;;;5024183;28;20225;-70
2021/09/11 10:45:42;;;;;;;10.50;4.10;;;;;;;;;;5026354;28;20053;-71
2021/09/11 10:48:27;;;;;;;9.25;3.58;;;;;;;;;;5036425;28;20087;-75
2021/09/11 10:50:53;;;;;;;11.93;4.00;;;;;;;;;;5035112;28;20116;-80
2021/09/11 10:53:20;;;;;;;11.02;3.78;;;;;;;;;;5033664;28;20026;-75
2021/09/11 10:55:48;;;;;;;13.65;3.70;;;;;;;;;;5039158;28;20025;-79
2021/09/11 10:58:27;;;;;;;7.78;3.78;;;;;;;;;;5036539;28;20054;-78
2021/09/11 11:00:59;;;;;;;11.05;3.72;;;;;;;;;;5036861;28;20037;-81
2021/09/11 11:03:27;;;;;;;8.40;3.35;;;;;;;;;;5033711;28;20060;-81
2021/09/11 11:06:01;;;;;;;35.75;5.00;;;;;;;;;;5029096;28;20026;-75
2021/09/11 11:08:28;;;;;;;13.57;3.95;;;;;;;;;;5034302;28;20124;-69
2021/09/11 11:10:55;;;;;;;11.75;4.00;;;;;;;;;;5036516;28;20024;-65
2021/09/11 11:13:22;;;;;;;10.73;4.20;;;;;;;;;;5049292;28;20120;-64
2021/09/11 11:15:55;;;;;;;31.38;4.95;;;;;;;;;;5036594;28;20041;-89
2021/09/11 11:18:21;;;;;;;13.05;4.10;;;;;;;;;;5043380;28;20051;-85
2021/09/11 11:20:48;;;;;;;19.13;4.45;;;;;;;;;;5032792;28;20053;-73
2021/09/11 11:23:14;;;;;;;10.82;4.30;;;;;;;;;;5044759;28;20017;-75
2021/09/11 11:25:40;;;;;;;8.80;3.85;;;;;;;;;;5031790;28;20030;-68
2021/09/11 11:28:08;;;;;;;10.98;3.90;;;;;;;;;;5051018;28;20412;-75
2021/09/11 11:30:39;;;;;;;13.13;4.07;;;;;;;;;;5037015;28;20108;-67
2021/09/11 11:33:06;;;;;;;16.08;4.28;;;;;;;;;;5042966;28;20382;-87
2021/09/11 11:35:32;;;;;;;9.15;3.92;;;;;;;;;;5035905;28;20105;-72
2021/09/11 11:37:58;;;;;;;10.63;3.85;;;;;;;;;;5036234;28;20029;-74
2021/09/11 11:40:25;;;;;;;8.18;4.28;;;;;;;;;;5044039;28;20064;-79
2021/09/11 11:42:51;;;;;;;13.48;3.90;;;;;;;;;;5040781;28;20101;-83
2021/09/11 11:45:17;;;;;;;14.80;5.10;;;;;;;;;;5038886;28;20013;-88
2021/09/11 11:47:49;;;;;;;7.60;4.38;;;;;;;;;;5047140;28;20091;-80
2021/09/11 11:50:23;;;;;;;11.70;4.30;;;;;;;;;;5054585;28;20096;-68
2021/09/11 11:52:55;;;;;;;6.80;3.90;;;;;;;;;;5054519;28;20031;-72
2021/09/11 11:55:22;;;;;;;11.82;4.07;;;;;;;;;;5040478;28;20029;-74
2021/09/11 11:57:48;;;;;;;8.50;4.57;;;;;;;;;;5047886;28;20057;-89
2021/09/11 12:00:16;;;;;;;8.93;4.60;;;;;;;;;;5054381;28;20029;-76
2021/09/11 12:02:46;;;;;;;12.02;4.10;;;;;;;;;;5054357;28;20063;-71
2021/09/11 12:05:12;;;;;;;9.63;4.05;;;;;;;;;;5053899;28;20028;-78
2021/09/11 12:07:39;;;;;;;6.07;4.15;;;;;;;;;;5046409;28;20029;-84
2021/09/11 12:10:13;;;;;;;6.93;4.22;;;;;;;;;;5034860;28;20025;-70
2021/09/11 12:12:50;;;;;;;11.23;4.40;;;;;;;;;;5040308;28;20047;-80
2021/09/11 12:15:17;;;;;;;13.70;4.47;;;;;;;;;;5045116;28;20496;-76
2021/09/11 12:17:53;;;;;;;6.32;4.22;;;;;;;;;;5033056;28;20063;-77
2021/09/11 12:20:19;;;;;;;7.88;4.13;;;;;;;;;;5044653;28;20033;-84
2021/09/11 12:22:45;;;;;;;7.10;4.28;;;;;;;;;;5053552;28;20036;-74
2021/09/11 12:25:12;;;;;;;9.85;4.15;;;;;;;;;;5045363;28;20033;-71
2021/09/11 12:27:38;;;;;;;8.68;4.22;;;;;;;;;;5044456;28;20083;-89
2021/09/11 12:30:06;;;;;;;10.25;4.32;;;;;;;;;;5021540;28;20071;-88
2021/09/11 12:32:32;;;;;;;10.55;4.30;;;;;;;;;;5044538;28;20027;-80
2021/09/11 12:35:08;;;;;;;14.40;4.70;;;;;;;;;;5054462;28;20098;-89
2021/09/11 12:37:53;;;;;;;10.85;4.82;;;;;;;;;;5032968;28;20033;-90
2021/09/11 12:40:19;;;;;;;9.07;4.57;;;;;;;;;;5038749;28;20044;-74
2021/09/11 12:42:46;;;;;;;8.13;4.78;;;;;;;;;;5037802;28;20074;-74
2021/09/11 12:45:12;;;;;;;7.88;4.28;;;;;;;;;;5049645;28;20112;-74
2021/09/11 12:47:38;;;;;;;9.77;4.28;;;;;;;;;;5040704;28;20470;-91
2021/09/11 12:50:04;;;;;;;10.73;4.70;;;;;;;;;;5053863;28;20094;-81
2021/09/11 12:52:30;;;;;;;8.95;4.10;;;;;;;;;;5044432;28;20035;-90
2021/09/11 12:54:57;;;;;;;11.05;4.55;;;;;;;;;;5032842;28;20083;-87
2021/09/11 12:57:23;;;;;;;23.13;5.05;;;;;;;;;;5035458;28;20029;-81
2021/09/11 12:59:49;;;;;;;11.82;4.05;;;;;;;;;;5047872;28;20145;-68
2021/09/11 13:02:17;;;;;;;7.15;4.10;;;;;;;;;;5047340;28;20040;-73
2021/09/11 13:04:43;;;;;;;8.23;4.30;;;;;;;;;;5035383;28;20391;-92
2021/09/11 13:07:09;;;;;;;6.82;3.78;;;;;;;;;;5048275;28;20479;-87
2021/09/11 13:09:36;;;;;;;7.97;4.30;;;;;;;;;;5034520;28;20029;-70
2021/09/11 13:12:04;;;;;;;7.20;3.88;;;;;;;;;;5041244;28;20026;-68
2021/09/11 13:14:30;;;;;;;11.60;4.18;;;;;;;;;;5041920;28;20036;-82
2021/09/11 13:16:56;;;;;;;7.28;3.95;;;;;;;;;;5053018;28;20048;-70
2021/09/11 13:19:22;;;;;;;9.80;4.20;;;;;;;;;;5039578;28;20037;-82
2021/09/11 13:21:50;;;;;;;7.88;4.22;;;;;;;;;;5053259;28;20017;-75
2021/09/11 13:24:16;;;;;;;9.75;4.43;;;;;;;;;;5041745;28;20044;-68
2021/09/11 13:26:42;;;;;;;11.02;3.90;;;;;;;;;;5050751;28;20025;-67
2021/09/11 13:29:09;;;;;;;9.02;4.50;;;;;;;;;;5031193;28;20030;-76
2021/09/11 13:31:36;;;;;;;6.57;3.78;;;;;;;;;;5037344;28;20540;-80
2021/09/11 13:34:02;;;;;;;12.93;4.10;;;;;;;;;;5044309;28;20028;-84
2021/09/11 13:36:29;;;;;;;6.80;4.00;;;;;;;;;;5035566;28;20079;-81
2021/09/11 13:38:56;;;;;;;10.70;3.90;;;;;;;;;;5043635;28;20136;-82
2021/09/11 13:41:22;;;;;;;10.90;3.83;;;;;;;;;;5036374;28;20049;-80
2021/09/11 13:43:49;;;;;;;11.55;4.53;;;;;;;;;;5042967;28;20498;-86
2021/09/11 13:46:15;;;;;;;10.07;4.85;;;;;;;;;;5034340;28;20092;-81
2021/09/11 13:48:44;;;;;;;11.95;6.38;;;;;;;;;;5052653;28;20078;-70
2021/09/11 13:51:11;;;;;;;11.60;4.50;;;;;;;;;;5051988;28;20018;-70
2021/09/11 13:53:37;;;;;;;11.45;4.30;;;;;;;;;;5044197;28;20115;-74
2021/09/11 13:56:03;;;;;;;9.07;4.30;;;;;;;;;;5047253;28;20052;-69
2021/09/11 13:58:29;;;;;;;8.23;4.13;;;;;;;;;;5044049;28;20049;-69
2021/09/11 14:00:55;;;;;;;6.88;3.95;;;;;;;;;;5052063;28;20505;-75
2021/09/11 14:03:22;;;;;;;13.23;4.40;;;;;;;;;;5051435;28;20021;-68
2021/09/11 14:05:48;;;;;;;14.57;4.40;;;;;;;;;;5052055;28;20386;-77
2021/09/11 14:08:14;;;;;;;9.73;4.25;;;;;;;;;;5038542;28;20387;-76
2021/09/11 14:10:40;;;;;;;10.38;4.70;;;;;;;;;;5035404;28;20491;-66
2021/09/11 14:13:06;;;;;;;9.63;4.15;;;;;;;;;;5051645;28;20063;-74
2021/09/11 14:15:32;;;;;;;12.52;4.40;;;;;;;;;;5052149;28;20104;-68
2021/09/11 14:17:58;;;;;;;8.88;4.18;;;;;;;;;;5047593;28;20029;-76
2021/09/11 14:20:24;;;;;;;8.35;4.03;;;;;;;;;;5053728;28;20040;-76
2021/09/11 14:22:51;;;;;;;11.40;3.80;;;;;;;;;;5056221;28;20276;-74
2021/09/11 14:25:17;;;;;;;8.25;4.13;;;;;;;;;;5055976;28;20047;-70
2021/09/11 14:27:44;;;;;;;6.65;3.92;;;;;;;;;;5041642;28;20520;-71
2021/09/11 14:30:11;;;;;;;8.48;4.13;;;;;;;;;;5035186;28;20061;-69
2021/09/11 14:32:37;;;;;;;11.95;4.32;;;;;;;;;;5036667;28;20067;-67
2021/09/11 14:35:04;;;;;;;10.98;4.00;;;;;;;;;;5053432;28;20060;-77
2021/09/11 14:37:30;;;;;;;10.38;4.40;;;;;;;;;;5040444;28;20383;-68